KARB/ARB METAR and TAF weather

Enter ICAO airport designator
Station Type Date Time Source
KARB METAR 2021/05/14 11:53 UTC NOAA

KARB 141153Z 31003KT 10SM CLR 10/03 A3033 RMK AO2 SLP271 T01000028 10100 21006 53011


Station Type Date Time Source
KARB Decoded METAR 2021/05/14 11:53 UTC NOAA

ANN ARBOR MUNICIPAL AIRPORT, MI, United States (KARB) 42-13N 083-45W 251M
May 14, 2021 - 07:53 AM EDT / 2021.05.14 1153 UTC
Wind: from the NW (310 degrees) at 3 MPH (3 KT):0
Visibility: 10 mile(s):0
Sky conditions: clear
Temperature: 50.0 F (10.0 C)
Dew Point: 37.0 F (2.8 C)
Relative Humidity: 60%
Pressure (altimeter): 30.33 in. Hg (1027 hPa)
Pressure tendency: 0.03 inches (1.1 hPa) higher than three hours ago
ob: KARB 141153Z 31003KT 10SM CLR 10/03 A3033 RMK AO2 SLP271 T01000028 10100 21006 53011
cycle: 12

Station Type Date Time Source
KARB TAF UTC NOAA

Error!

Example: see airport list